Silverton, Colorado
Current Conditions -  °F | °C
As of 8:15 AM on Sunday 21 Dec 2014 (Local Time) from KTEX Reporting Station
Light Snow Light Snow  
Wind Chill: 21°   Ceiling: 2500
Heat Index: 27°   Visibility: 4mi
Dew Point: 23°   Wind: 5mph
Humidity: 86%   Direction: 120°ESE
Pressure: 30.07"   Gusts: NA
Location:  37.81°N, 107.66°W
Report Text: KTEX 211515Z AUTO 12004KT 4SM -SN OVC025 M03/M05 A3007 RMK AO2 T10301050
Loading
Personal Weather Stations






























Interactive Weather Map New forecast layout! Learn more

10-Day Weather Forecast

Advertisements
Track Severe Weather on mobile